sensor_id;sensor_type;location;lat;lon;timestamp;pressure;altitude;pressure_sealevel;temperature;humidity
59043;BME280;44826;51.596;5.624;2024-02-23T00:01:13;98772.31;;;3.74;100.00
59043;BME280;44826;51.596;5.624;2024-02-23T00:03:42;98775.84;;;3.70;100.00
59043;BME280;44826;51.596;5.624;2024-02-23T00:06:07;98774.97;;;3.71;100.00
59043;BME280;44826;51.596;5.624;2024-02-23T00:08:34;98782.78;;;3.68;100.00
59043;BME280;44826;51.596;5.624;2024-02-23T00:10:59;98780.28;;;3.65;100.00
59043;BME280;44826;51.596;5.624;2024-02-23T00:13:25;98783.75;;;3.64;100.00
59043;BME280;44826;51.596;5.624;2024-02-23T00:15:53;98783.84;;;3.61;100.00
59043;BME280;44826;51.596;5.624;2024-02-23T00:18:18;98785.44;;;3.65;100.00
59043;BME280;44826;51.596;5.624;2024-02-23T00:20:46;98777.81;;;3.62;100.00
59043;BME280;44826;51.596;5.624;2024-02-23T00:23:12;98789.88;;;3.60;100.00
59043;BME280;44826;51.596;5.624;2024-02-23T00:25:38;98790.66;;;3.62;100.00
59043;BME280;44826;51.596;5.624;2024-02-23T00:28:12;98788.09;;;3.62;100.00
59043;BME280;44826;51.596;5.624;2024-02-23T00:30:37;98796.56;;;3.66;100.00
59043;BME280;44826;51.596;5.624;2024-02-23T00:33:03;98793.16;;;3.65;100.00
59043;BME280;44826;51.596;5.624;2024-02-23T00:35:32;98800.88;;;3.65;100.00
59043;BME280;44826;51.596;5.624;2024-02-23T00:37:57;98800.84;;;3.67;100.00
59043;BME280;44826;51.596;5.624;2024-02-23T00:40:25;98799.00;;;3.70;100.00
59043;BME280;44826;51.596;5.624;2024-02-23T00:42:51;98798.94;;;3.72;100.00
59043;BME280;44826;51.596;5.624;2024-02-23T00:45:16;98803.25;;;3.71;100.00
59043;BME280;44826;51.596;5.624;2024-02-23T00:47:43;98800.72;;;3.70;100.00
59043;BME280;44826;51.596;5.624;2024-02-23T00:50:09;98811.88;;;3.69;100.00
59043;BME280;44826;51.596;5.624;2024-02-23T00:52:35;98814.59;;;3.66;100.00
59043;BME280;44826;51.596;5.624;2024-02-23T00:55:01;98805.06;;;3.68;100.00
59043;BME280;44826;51.596;5.624;2024-02-23T00:57:26;98820.50;;;3.68;100.00
59043;BME280;44826;51.596;5.624;2024-02-23T00:59:57;98820.47;;;3.69;100.00
59043;BME280;44826;51.596;5.624;2024-02-23T01:02:23;98836.72;;;3.70;100.00
59043;BME280;44826;51.596;5.624;2024-02-23T01:04:48;98831.69;;;3.67;100.00
59043;BME280;44826;51.596;5.624;2024-02-23T01:07:13;98834.28;;;3.65;100.00
59043;BME280;44826;51.596;5.624;2024-02-23T01:09:39;98847.06;;;3.68;100.00
59043;BME280;44826;51.596;5.624;2024-02-23T01:12:04;98843.63;;;3.68;100.00
59043;BME280;44826;51.596;5.624;2024-02-23T01:14:30;98847.06;;;3.68;100.00
59043;BME280;44826;51.596;5.624;2024-02-23T01:16:56;98840.16;;;3.70;100.00
59043;BME280;44826;51.596;5.624;2024-02-23T01:19:21;98856.41;;;3.71;100.00
59043;BME280;44826;51.596;5.624;2024-02-23T01:21:46;98853.00;;;3.70;100.00
59043;BME280;44826;51.596;5.624;2024-02-23T01:24:12;98856.38;;;3.72;100.00
59043;BME280;44826;51.596;5.624;2024-02-23T01:26:37;98848.59;;;3.74;100.00
59043;BME280;44826;51.596;5.624;2024-02-23T01:29:02;98858.06;;;3.73;100.00
59043;BME280;44826;51.596;5.624;2024-02-23T01:31:28;98867.41;;;3.76;100.00
59043;BME280;44826;51.596;5.624;2024-02-23T01:33:54;98855.28;;;3.79;100.00
59043;BME280;44826;51.596;5.624;2024-02-23T01:36:19;98851.84;;;3.80;100.00
59043;BME280;44826;51.596;5.624;2024-02-23T01:38:45;98855.28;;;3.79;100.00
59043;BME280;44826;51.596;5.624;2024-02-23T01:41:10;98858.75;;;3.78;100.00
59043;BME280;44826;51.596;5.624;2024-02-23T01:43:37;98856.28;;;3.75;100.00
59043;BME280;44826;51.596;5.624;2024-02-23T01:46:03;98869.03;;;3.78;100.00
59043;BME280;44826;51.596;5.624;2024-02-23T01:48:30;98855.34;;;3.78;100.00
59043;BME280;44826;51.596;5.624;2024-02-23T01:50:56;98864.00;;;3.75;100.00
59043;BME280;44826;51.596;5.624;2024-02-23T01:53:22;98861.44;;;3.75;100.00
59043;BME280;44826;51.596;5.624;2024-02-23T01:55:48;98863.91;;;3.78;100.00
59043;BME280;44826;51.596;5.624;2024-02-23T01:58:14;98875.06;;;3.77;100.00
59043;BME280;44826;51.596;5.624;2024-02-23T02:00:40;98879.22;;;3.83;100.00
59043;BME280;44826;51.596;5.624;2024-02-23T02:03:05;98870.59;;;3.84;100.00
59043;BME280;44826;51.596;5.624;2024-02-23T02:05:30;98880.03;;;3.84;100.00
59043;BME280;44826;51.596;5.624;2024-02-23T02:07:56;98870.63;;;3.83;100.00
59043;BME280;44826;51.596;5.624;2024-02-23T02:10:25;98869.81;;;3.82;100.00
59043;BME280;44826;51.596;5.624;2024-02-23T02:12:51;98883.41;;;3.86;100.00
59043;BME280;44826;51.596;5.624;2024-02-23T02:15:16;98868.94;;;3.83;100.00
59043;BME280;44826;51.596;5.624;2024-02-23T02:17:42;98875.69;;;3.86;100.00
59043;BME280;44826;51.596;5.624;2024-02-23T02:20:11;98884.28;;;3.85;100.00
59043;BME280;44826;51.596;5.624;2024-02-23T02:22:37;98898.09;;;3.82;100.00
59043;BME280;44826;51.596;5.624;2024-02-23T02:25:03;98893.69;;;3.86;100.00
59043;BME280;44826;51.596;5.624;2024-02-23T02:27:29;98899.78;;;3.83;99.97
59043;BME280;44826;51.596;5.624;2024-02-23T02:29:54;98884.44;;;3.80;100.00
59043;BME280;44826;51.596;5.624;2024-02-23T02:32:20;98890.41;;;3.80;99.60
59043;BME280;44826;51.596;5.624;2024-02-23T02:34:45;98904.88;;;3.85;99.37
59043;BME280;44826;51.596;5.624;2024-02-23T02:37:10;98898.94;;;3.83;99.21
59043;BME280;44826;51.596;5.624;2024-02-23T02:39:36;98903.19;;;3.84;99.35
59043;BME280;44826;51.596;5.624;2024-02-23T02:42:01;98911.06;;;3.77;99.67
59043;BME280;44826;51.596;5.624;2024-02-23T02:44:27;98900.84;;;3.76;99.19
59043;BME280;44826;51.596;5.624;2024-02-23T02:46:55;98911.19;;;3.74;99.17
59043;BME280;44826;51.596;5.624;2024-02-23T02:49:20;98916.34;;;3.74;98.89
59043;BME280;44826;51.596;5.624;2024-02-23T02:51:46;98918.94;;;3.73;99.29
59043;BME280;44826;51.596;5.624;2024-02-23T02:54:11;98918.94;;;3.73;99.13
59043;BME280;44826;51.596;5.624;2024-02-23T02:56:44;98921.56;;;3.71;99.37
59043;BME280;44826;51.596;5.624;2024-02-23T02:59:11;98919.88;;;3.70;99.12
59043;BME280;44826;51.596;5.624;2024-02-23T03:01:37;98922.44;;;3.70;99.51
59043;BME280;44826;51.596;5.624;2024-02-23T03:04:02;98933.44;;;3.75;99.05
59043;BME280;44826;51.596;5.624;2024-02-23T03:06:27;98934.28;;;3.76;98.83
59043;BME280;44826;51.596;5.624;2024-02-23T03:08:53;98925.84;;;3.71;99.58
59043;BME280;44826;51.596;5.624;2024-02-23T03:11:18;98918.19;;;3.69;99.15
59043;BME280;44826;51.596;5.624;2024-02-23T03:13:43;98918.19;;;3.69;99.72
59043;BME280;44826;51.596;5.624;2024-02-23T03:16:16;98929.19;;;3.74;98.76
59043;BME280;44826;51.596;5.624;2024-02-23T03:18:42;98934.38;;;3.73;98.84
59043;BME280;44826;51.596;5.624;2024-02-23T03:21:08;98924.16;;;3.70;99.54
59043;BME280;44826;51.596;5.624;2024-02-23T03:23:35;98942.22;;;3.68;99.39
59043;BME280;44826;51.596;5.624;2024-02-23T03:26:00;98928.59;;;3.64;99.84
59043;BME280;44826;51.596;5.624;2024-02-23T03:28:25;98932.00;;;3.65;99.44
59043;BME280;44826;51.596;5.624;2024-02-23T03:30:50;98944.06;;;3.63;99.54
59043;BME280;44826;51.596;5.624;2024-02-23T03:33:16;98932.97;;;3.61;99.83
59043;BME280;44826;51.596;5.624;2024-02-23T03:35:41;98933.78;;;3.63;99.65
59043;BME280;44826;51.596;5.624;2024-02-23T03:38:06;98937.16;;;3.65;99.62
59043;BME280;44826;51.596;5.624;2024-02-23T03:40:32;98943.16;;;3.66;99.59
59043;BME280;44826;51.596;5.624;2024-02-23T03:42:57;98943.16;;;3.66;99.00
59043;BME280;44826;51.596;5.624;2024-02-23T03:45:22;98937.94;;;3.67;99.07
59043;BME280;44826;51.596;5.624;2024-02-23T03:47:48;98943.16;;;3.66;99.35
59043;BME280;44826;51.596;5.624;2024-02-23T03:50:13;98942.28;;;3.65;99.28
59043;BME280;44826;51.596;5.624;2024-02-23T03:52:38;98944.06;;;3.63;99.49
59043;BME280;44826;51.596;5.624;2024-02-23T03:55:04;98937.22;;;3.63;99.45
59043;BME280;44826;51.596;5.624;2024-02-23T03:57:31;98942.22;;;3.68;99.15
59043;BME280;44826;51.596;5.624;2024-02-23T03:59:56;98946.47;;;3.69;99.83
59043;BME280;44826;51.596;5.624;2024-02-23T04:02:22;98945.59;;;3.70;99.48
59043;BME280;44826;51.596;5.624;2024-02-23T04:04:48;98951.56;;;3.71;99.17
59043;BME280;44826;51.596;5.624;2024-02-23T04:07:13;98945.59;;;3.70;99.36
59043;BME280;44826;51.596;5.624;2024-02-23T04:09:39;98941.28;;;3.71;99.40
59043;BME280;44826;51.596;5.624;2024-02-23T04:12:04;98934.34;;;3.74;99.28
59043;BME280;44826;51.596;5.624;2024-02-23T04:14:32;98942.06;;;3.73;99.42
59043;BME280;44826;51.596;5.624;2024-02-23T04:17:01;98947.28;;;3.71;99.50
59043;BME280;44826;51.596;5.624;2024-02-23T04:19:27;98943.81;;;3.72;99.56
59043;BME280;44826;51.596;5.624;2024-02-23T04:21:52;98949.84;;;3.71;99.50
59043;BME280;44826;51.596;5.624;2024-02-23T04:24:17;98958.47;;;3.69;99.65
59043;BME280;44826;51.596;5.624;2024-02-23T04:26:43;98961.84;;;3.71;99.15
59043;BME280;44826;51.596;5.624;2024-02-23T04:29:08;98961.94;;;3.68;99.12
59043;BME280;44826;51.596;5.624;2024-02-23T04:31:37;98972.34;;;3.63;99.60
59043;BME280;44826;51.596;5.624;2024-02-23T04:34:03;98975.78;;;3.63;99.62
59043;BME280;44826;51.596;5.624;2024-02-23T04:36:28;98986.00;;;3.65;99.73
59043;BME280;44826;51.596;5.624;2024-02-23T04:38:54;98984.19;;;3.69;99.68
59043;BME280;44826;51.596;5.624;2024-02-23T04:41:20;98979.81;;;3.72;100.00
59043;BME280;44826;51.596;5.624;2024-02-23T04:43:47;98986.66;;;3.73;100.00
59043;BME280;44826;51.596;5.624;2024-02-23T04:46:12;98988.34;;;3.74;99.87
59043;BME280;44826;51.596;5.624;2024-02-23T04:48:38;98989.97;;;3.77;100.00
59043;BME280;44826;51.596;5.624;2024-02-23T04:51:04;98987.41;;;3.77;99.82
59043;BME280;44826;51.596;5.624;2024-02-23T04:53:29;98993.34;;;3.79;99.91
59043;BME280;44826;51.596;5.624;2024-02-23T04:55:54;98990.78;;;3.79;100.00
59043;BME280;44826;51.596;5.624;2024-02-23T04:58:19;98988.97;;;3.83;99.74
59043;BME280;44826;51.596;5.624;2024-02-23T05:00:46;98988.06;;;3.84;100.00
59043;BME280;44826;51.596;5.624;2024-02-23T05:03:11;98994.91;;;3.85;100.00
59043;BME280;44826;51.596;5.624;2024-02-23T05:05:36;98985.44;;;3.85;100.00
59043;BME280;44826;51.596;5.624;2024-02-23T05:08:02;98997.31;;;3.91;99.78
59043;BME280;44826;51.596;5.624;2024-02-23T05:10:27;98996.44;;;3.92;100.00
59043;BME280;44826;51.596;5.624;2024-02-23T05:12:53;98994.59;;;3.95;100.00
59043;BME280;44826;51.596;5.624;2024-02-23T05:15:18;98991.19;;;3.95;99.76
59043;BME280;44826;51.596;5.624;2024-02-23T05:17:44;98997.03;;;4.00;100.00
59043;BME280;44826;51.596;5.624;2024-02-23T05:20:10;99008.97;;;4.03;99.57
59043;BME280;44826;51.596;5.624;2024-02-23T05:22:39;98999.53;;;4.03;99.56
59043;BME280;44826;51.596;5.624;2024-02-23T05:25:05;98996.06;;;4.04;99.88
59043;BME280;44826;51.596;5.624;2024-02-23T05:27:30;98984.84;;;4.07;99.25
59043;BME280;44826;51.596;5.624;2024-02-23T05:29:56;98984.00;;;4.06;99.21
59043;BME280;44826;51.596;5.624;2024-02-23T05:32:21;98978.88;;;4.06;99.94
59043;BME280;44826;51.596;5.624;2024-02-23T05:34:46;98988.16;;;4.10;99.43
59043;BME280;44826;51.596;5.624;2024-02-23T05:37:16;98998.38;;;4.14;99.27
59043;BME280;44826;51.596;5.624;2024-02-23T05:39:42;98981.22;;;4.14;98.74
59043;BME280;44826;51.596;5.624;2024-02-23T05:42:07;98991.44;;;4.16;99.18
59043;BME280;44826;51.596;5.624;2024-02-23T05:44:32;98981.16;;;4.16;98.85
59043;BME280;44826;51.596;5.624;2024-02-23T05:46:58;98971.56;;;4.21;98.93
59043;BME280;44826;51.596;5.624;2024-02-23T05:49:23;98978.50;;;4.19;98.47
59043;BME280;44826;51.596;5.624;2024-02-23T05:51:49;98970.72;;;4.20;98.48
59043;BME280;44826;51.596;5.624;2024-02-23T05:54:14;98977.56;;;4.21;99.01
59043;BME280;44826;51.596;5.624;2024-02-23T05:56:40;98975.84;;;4.22;98.29
59043;BME280;44826;51.596;5.624;2024-02-23T05:59:05;98967.16;;;4.24;98.92
59043;BME280;44826;51.596;5.624;2024-02-23T06:01:31;98977.31;;;4.29;97.89
59043;BME280;44826;51.596;5.624;2024-02-23T06:03:56;98967.03;;;4.29;97.49
59043;BME280;44826;51.596;5.624;2024-02-23T06:06:22;98968.78;;;4.29;97.91
59043;BME280;44826;51.596;5.624;2024-02-23T06:08:47;98972.97;;;4.31;97.33
59043;BME280;44826;51.596;5.624;2024-02-23T06:11:15;98973.84;;;4.32;97.00
59043;BME280;44826;51.596;5.624;2024-02-23T06:13:40;98978.13;;;4.31;97.34
59043;BME280;44826;51.596;5.624;2024-02-23T06:16:10;98973.75;;;4.35;96.84
59043;BME280;44826;51.596;5.624;2024-02-23T06:18:35;98966.91;;;4.34;96.85
59043;BME280;44826;51.596;5.624;2024-02-23T06:21:01;98978.03;;;4.34;96.96
59043;BME280;44826;51.596;5.624;2024-02-23T06:23:27;98967.66;;;4.37;96.27
59043;BME280;44826;51.596;5.624;2024-02-23T06:25:52;98966.06;;;4.33;96.45
59043;BME280;44826;51.596;5.624;2024-02-23T06:28:18;98972.81;;;4.37;96.48
59043;BME280;44826;51.596;5.624;2024-02-23T06:30:43;98976.19;;;4.39;95.67
59043;BME280;44826;51.596;5.624;2024-02-23T06:33:08;98976.09;;;4.43;94.98
59043;BME280;44826;51.596;5.624;2024-02-23T06:35:34;98976.19;;;4.39;95.68
59043;BME280;44826;51.596;5.624;2024-02-23T06:37:59;98983.81;;;4.43;94.75
59043;BME280;44826;51.596;5.624;2024-02-23T06:40:24;99000.88;;;4.45;94.53
59043;BME280;44826;51.596;5.624;2024-02-23T06:42:50;98979.34;;;4.48;94.55
59043;BME280;44826;51.596;5.624;2024-02-23T06:45:16;98979.34;;;4.48;93.93
59043;BME280;44826;51.596;5.624;2024-02-23T06:47:41;98987.78;;;4.53;93.74
59043;BME280;44826;51.596;5.624;2024-02-23T06:50:07;98967.13;;;4.54;92.74
59043;BME280;44826;51.596;5.624;2024-02-23T06:52:34;98974.75;;;4.58;92.75
59043;BME280;44826;51.596;5.624;2024-02-23T06:54:59;98975.69;;;4.55;92.24
59043;BME280;44826;51.596;5.624;2024-02-23T06:57:25;98968.84;;;4.54;93.16
59043;BME280;44826;51.596;5.624;2024-02-23T06:59:51;98965.41;;;4.55;92.43
59043;BME280;44826;51.596;5.624;2024-02-23T07:02:16;98961.88;;;4.58;91.72
59043;BME280;44826;51.596;5.624;2024-02-23T07:04:42;98973.72;;;4.63;91.26
59043;BME280;44826;51.596;5.624;2024-02-23T07:07:07;98972.91;;;4.61;91.20
59043;BME280;44826;51.596;5.624;2024-02-23T07:09:34;98954.06;;;4.61;91.17
59043;BME280;44826;51.596;5.624;2024-02-23T07:11:59;98973.84;;;4.59;90.97
59043;BME280;44826;51.596;5.624;2024-02-23T07:14:25;98975.59;;;4.58;91.24
59043;BME280;44826;51.596;5.624;2024-02-23T07:16:50;98969.59;;;4.58;91.67
59043;BME280;44826;51.596;5.624;2024-02-23T07:19:17;98979.75;;;4.62;90.99
59043;BME280;44826;51.596;5.624;2024-02-23T07:21:42;98992.59;;;4.64;90.22
59043;BME280;44826;51.596;5.624;2024-02-23T07:24:08;98982.28;;;4.64;90.86
59043;BME280;44826;51.596;5.624;2024-02-23T07:26:33;98979.63;;;4.67;90.50
59043;BME280;44826;51.596;5.624;2024-02-23T07:28:59;98975.38;;;4.66;90.39
59043;BME280;44826;51.596;5.624;2024-02-23T07:31:25;98966.78;;;4.65;90.78
59043;BME280;44826;51.596;5.624;2024-02-23T07:33:50;98975.22;;;4.70;89.78
59043;BME280;44826;51.596;5.624;2024-02-23T07:36:19;98966.69;;;4.68;90.56
59043;BME280;44826;51.596;5.624;2024-02-23T07:38:45;98964.06;;;4.70;90.54
59043;BME280;44826;51.596;5.624;2024-02-23T07:41:11;98970.94;;;4.69;91.06
59043;BME280;44826;51.596;5.624;2024-02-23T07:43:38;98975.13;;;4.74;90.65
59043;BME280;44826;51.596;5.624;2024-02-23T07:46:03;98963.06;;;4.74;90.35
59043;BME280;44826;51.596;5.624;2024-02-23T07:48:30;98974.91;;;4.80;89.85
59043;BME280;44826;51.596;5.624;2024-02-23T07:50:55;98970.53;;;4.82;90.33
59043;BME280;44826;51.596;5.624;2024-02-23T07:53:21;98969.56;;;4.86;90.55
59043;BME280;44826;51.596;5.624;2024-02-23T07:55:46;98971.16;;;4.90;91.09
59043;BME280;44826;51.596;5.624;2024-02-23T07:58:11;98964.16;;;4.94;90.31
59043;BME280;44826;51.596;5.624;2024-02-23T08:00:37;98976.16;;;4.95;90.26
59043;BME280;44826;51.596;5.624;2024-02-23T08:03:04;98972.53;;;5.00;89.98
59043;BME280;44826;51.596;5.624;2024-02-23T08:05:29;98980.25;;;5.00;89.22
59043;BME280;44826;51.596;5.624;2024-02-23T08:07:54;98973.38;;;5.01;89.04
59043;BME280;44826;51.596;5.624;2024-02-23T08:10:20;98970.75;;;5.03;88.71
59043;BME280;44826;51.596;5.624;2024-02-23T08:12:46;98961.28;;;5.03;88.50
59043;BME280;44826;51.596;5.624;2024-02-23T08:15:12;98961.94;;;5.10;87.92
59043;BME280;44826;51.596;5.624;2024-02-23T08:17:37;98971.38;;;5.09;88.77
59043;BME280;44826;51.596;5.624;2024-02-23T08:20:02;98966.84;;;5.16;87.73
59043;BME280;44826;51.596;5.624;2024-02-23T08:22:29;98965.06;;;5.18;87.28
59043;BME280;44826;51.596;5.624;2024-02-23T08:24:54;98965.97;;;5.17;87.62
59043;BME280;44826;51.596;5.624;2024-02-23T08:27:19;98964.97;;;5.21;87.66
59043;BME280;44826;51.596;5.624;2024-02-23T08:29:45;98958.13;;;5.20;87.73
59043;BME280;44826;51.596;5.624;2024-02-23T08:32:10;98963.28;;;5.20;88.24
59043;BME280;44826;51.596;5.624;2024-02-23T08:34:35;98964.91;;;5.23;88.01
59043;BME280;44826;51.596;5.624;2024-02-23T08:37:01;98953.88;;;5.19;88.37
59043;BME280;44826;51.596;5.624;2024-02-23T08:39:27;98953.88;;;5.19;88.63
59043;BME280;44826;51.596;5.624;2024-02-23T08:41:52;98962.31;;;5.23;88.18
59043;BME280;44826;51.596;5.624;2024-02-23T08:44:18;98952.81;;;5.25;88.61
59043;BME280;44826;51.596;5.624;2024-02-23T08:46:44;98958.81;;;5.25;88.58
59043;BME280;44826;51.596;5.624;2024-02-23T08:49:09;98962.19;;;5.27;88.84
59043;BME280;44826;51.596;5.624;2024-02-23T08:51:34;98946.59;;;5.30;88.40
59043;BME280;44826;51.596;5.624;2024-02-23T08:54:00;98947.28;;;5.36;88.70
59043;BME280;44826;51.596;5.624;2024-02-23T08:56:29;98960.06;;;5.39;88.86
59043;BME280;44826;51.596;5.624;2024-02-23T08:58:55;98947.09;;;5.42;88.10
59043;BME280;44826;51.596;5.624;2024-02-23T09:01:20;98946.03;;;5.47;88.03
59043;BME280;44826;51.596;5.624;2024-02-23T09:03:45;98941.59;;;5.51;88.08
59043;BME280;44826;51.596;5.624;2024-02-23T09:06:10;98936.22;;;5.57;87.31
59043;BME280;44826;51.596;5.624;2024-02-23T09:08:36;98941.28;;;5.60;88.08
59043;BME280;44826;51.596;5.624;2024-02-23T09:11:01;98945.47;;;5.63;87.54
59043;BME280;44826;51.596;5.624;2024-02-23T09:13:27;98945.28;;;5.68;87.31
59043;BME280;44826;51.596;5.624;2024-02-23T09:15:54;98951.34;;;5.67;87.23
59043;BME280;44826;51.596;5.624;2024-02-23T09:18:20;98964.25;;;5.67;87.69
59043;BME280;44826;51.596;5.624;2024-02-23T09:20:45;98949.56;;;5.69;87.88
59043;BME280;44826;51.596;5.624;2024-02-23T09:23:10;98954.72;;;5.69;87.28
59043;BME280;44826;51.596;5.624;2024-02-23T09:25:37;98962.63;;;5.64;87.49
59043;BME280;44826;51.596;5.624;2024-02-23T09:28:03;98945.19;;;5.71;87.15
59043;BME280;44826;51.596;5.624;2024-02-23T09:30:28;98944.41;;;5.69;87.41
59043;BME280;44826;51.596;5.624;2024-02-23T09:32:53;98954.72;;;5.69;87.71
59043;BME280;44826;51.596;5.624;2024-02-23T09:35:19;98960.66;;;5.71;87.86
59043;BME280;44826;51.596;5.624;2024-02-23T09:37:45;98959.66;;;5.75;88.11
59043;BME280;44826;51.596;5.624;2024-02-23T09:40:10;98960.22;;;5.83;88.16
59043;BME280;44826;51.596;5.624;2024-02-23T09:42:36;98952.25;;;5.89;90.01
59043;BME280;44826;51.596;5.624;2024-02-23T09:45:05;98950.34;;;5.95;88.71
59043;BME280;44826;51.596;5.624;2024-02-23T09:47:31;98953.50;;;6.03;88.93
59043;BME280;44826;51.596;5.624;2024-02-23T09:49:57;98955.19;;;6.04;88.38
59043;BME280;44826;51.596;5.624;2024-02-23T09:52:22;98957.59;;;6.08;88.64
59043;BME280;44826;51.596;5.624;2024-02-23T09:54:48;98978.22;;;6.10;87.46
59043;BME280;44826;51.596;5.624;2024-02-23T09:57:15;98976.41;;;6.12;87.04
59043;BME280;44826;51.596;5.624;2024-02-23T09:59:41;98992.56;;;6.17;85.72
59043;BME280;44826;51.596;5.624;2024-02-23T10:02:14;98968.72;;;6.11;86.79
59043;BME280;44826;51.596;5.624;2024-02-23T10:04:41;98991.94;;;6.11;85.82
59043;BME280;44826;51.596;5.624;2024-02-23T10:07:08;98980.91;;;6.07;85.51
59043;BME280;44826;51.596;5.624;2024-02-23T10:09:34;99024.97;;;6.02;85.73
59043;BME280;44826;51.596;5.624;2024-02-23T10:11:59;99002.63;;;6.01;85.49
59043;BME280;44826;51.596;5.624;2024-02-23T10:14:25;99000.28;;;5.93;86.20
59043;BME280;44826;51.596;5.624;2024-02-23T10:16:50;98998.88;;;5.85;87.16
59043;BME280;44826;51.596;5.624;2024-02-23T10:19:19;98984.22;;;5.85;87.17
59043;BME280;44826;51.596;5.624;2024-02-23T10:21:45;99002.88;;;5.93;86.63
59043;BME280;44826;51.596;5.624;2024-02-23T10:24:10;99005.78;;;5.84;87.40
59043;BME280;44826;51.596;5.624;2024-02-23T10:26:36;99016.94;;;5.85;87.48
59043;BME280;44826;51.596;5.624;2024-02-23T10:29:01;99006.72;;;5.82;88.00
59043;BME280;44826;51.596;5.624;2024-02-23T10:31:28;99021.25;;;5.84;87.97
59043;BME280;44826;51.596;5.624;2024-02-23T10:33:57;99021.25;;;5.84;88.15
59043;BME280;44826;51.596;5.624;2024-02-23T10:36:23;99030.69;;;5.85;87.83
59043;BME280;44826;51.596;5.624;2024-02-23T10:38:52;99016.78;;;5.89;87.53
59043;BME280;44826;51.596;5.624;2024-02-23T10:41:20;99028.00;;;5.88;88.00
59043;BME280;44826;51.596;5.624;2024-02-23T10:43:48;99042.41;;;5.94;87.94
59043;BME280;44826;51.596;5.624;2024-02-23T10:46:14;99032.94;;;5.95;87.88
59043;BME280;44826;51.596;5.624;2024-02-23T10:48:44;99036.31;;;5.97;88.36
59043;BME280;44826;51.596;5.624;2024-02-23T10:51:10;99037.09;;;5.99;87.78
59043;BME280;44826;51.596;5.624;2024-02-23T10:53:39;99027.56;;;6.01;89.23
59043;BME280;44826;51.596;5.624;2024-02-23T10:56:07;99025.75;;;6.04;88.59
59043;BME280;44826;51.596;5.624;2024-02-23T10:58:33;99036.91;;;6.05;88.60
59043;BME280;44826;51.596;5.624;2024-02-23T11:01:00;99046.22;;;6.09;88.28
59043;BME280;44826;51.596;5.624;2024-02-23T11:03:29;99046.22;;;6.09;87.87
59043;BME280;44826;51.596;5.624;2024-02-23T11:05:55;99047.91;;;6.10;87.60
59043;BME280;44826;51.596;5.624;2024-02-23T11:08:20;99056.66;;;6.06;88.32
59043;BME280;44826;51.596;5.624;2024-02-23T11:10:49;99048.84;;;6.07;88.01
59043;BME280;44826;51.596;5.624;2024-02-23T11:13:18;99048.81;;;6.09;87.46
59043;BME280;44826;51.596;5.624;2024-02-23T11:15:44;99053.25;;;6.05;88.52
59043;BME280;44826;51.596;5.624;2024-02-23T11:18:22;99053.19;;;6.07;88.33
59043;BME280;44826;51.596;5.624;2024-02-23T11:21:02;99060.13;;;6.05;88.33
59043;BME280;44826;51.596;5.624;2024-02-23T11:23:48;99061.72;;;6.09;88.42
59043;BME280;44826;51.596;5.624;2024-02-23T11:26:15;99053.13;;;6.08;87.67
59043;BME280;44826;51.596;5.624;2024-02-23T11:28:50;99047.00;;;6.11;88.53
59043;BME280;44826;51.596;5.624;2024-02-23T11:31:23;99051.16;;;6.15;88.33
59043;BME280;44826;51.596;5.624;2024-02-23T11:36:35;99048.25;;;6.25;87.91
59043;BME280;44826;51.596;5.624;2024-02-23T11:39:01;99049.94;;;6.26;88.08
59043;BME280;44826;51.596;5.624;2024-02-23T11:41:28;99050.53;;;6.32;88.50
59043;BME280;44826;51.596;5.624;2024-02-23T11:43:54;99052.78;;;6.42;87.89
59043;BME280;44826;51.596;5.624;2024-02-23T11:46:21;99055.06;;;6.49;87.33
59043;BME280;44826;51.596;5.624;2024-02-23T11:48:48;99053.94;;;6.57;87.72
59043;BME280;44826;51.596;5.624;2024-02-23T11:51:19;99058.69;;;6.67;87.45
59043;BME280;44826;51.596;5.624;2024-02-23T11:53:46;99066.16;;;6.75;86.52
59043;BME280;44826;51.596;5.624;2024-02-23T11:56:12;99057.50;;;6.76;86.71
59043;BME280;44826;51.596;5.624;2024-02-23T11:58:39;99046.19;;;6.79;87.27
59043;BME280;44826;51.596;5.624;2024-02-23T12:01:04;99050.47;;;6.80;86.40
59043;BME280;44826;51.596;5.624;2024-02-23T12:03:32;99047.94;;;6.78;86.08
59043;BME280;44826;51.596;5.624;2024-02-23T12:05:58;99052.25;;;6.78;86.57
59043;BME280;44826;51.596;5.624;2024-02-23T12:08:30;99063.47;;;6.78;86.02
59043;BME280;44826;51.596;5.624;2024-02-23T12:11:03;99066.88;;;6.79;84.91
59043;BME280;44826;51.596;5.624;2024-02-23T12:13:29;99059.19;;;6.77;85.10
59043;BME280;44826;51.596;5.624;2024-02-23T12:15:54;99062.69;;;6.76;86.09
59043;BME280;44826;51.596;5.624;2024-02-23T12:18:24;99065.19;;;6.78;85.77
59043;BME280;44826;51.596;5.624;2024-02-23T12:20:52;99070.31;;;6.79;84.75
59043;BME280;44826;51.596;5.624;2024-02-23T12:23:18;99068.56;;;6.80;85.03
59043;BME280;44826;51.596;5.624;2024-02-23T12:25:56;99071.03;;;6.83;85.15
59043;BME280;44826;51.596;5.624;2024-02-23T12:28:23;99072.53;;;6.89;84.09
59043;BME280;44826;51.596;5.624;2024-02-23T12:31:04;99074.81;;;6.96;84.75
59043;BME280;44826;51.596;5.624;2024-02-23T12:33:34;99071.13;;;7.02;84.27
59043;BME280;44826;51.596;5.624;2024-02-23T12:36:01;99064.94;;;7.06;83.87
59043;BME280;44826;51.596;5.624;2024-02-23T12:38:27;99067.59;;;7.05;83.60
59043;BME280;44826;51.596;5.624;2024-02-23T12:40:53;99074.38;;;7.07;84.09
59043;BME280;44826;51.596;5.624;2024-02-23T12:43:18;99064.81;;;7.09;83.52
59043;BME280;44826;51.596;5.624;2024-02-23T12:45:54;99070.13;;;7.06;83.67
59043;BME280;44826;51.596;5.624;2024-02-23T12:48:20;99063.25;;;7.05;83.27
59043;BME280;44826;51.596;5.624;2024-02-23T12:50:46;99060.69;;;7.05;84.54
59043;BME280;44826;51.596;5.624;2024-02-23T12:56:05;99063.06;;;7.10;84.22
59043;BME280;44826;51.596;5.624;2024-02-23T12:58:39;99070.78;;;7.11;83.74
59043;BME280;44826;51.596;5.624;2024-02-23T13:01:05;99071.69;;;7.10;83.54
59043;BME280;44826;51.596;5.624;2024-02-23T13:03:32;99057.91;;;7.10;83.23
59043;BME280;44826;51.596;5.624;2024-02-23T13:05:58;99065.81;;;7.07;82.81
59043;BME280;44826;51.596;5.624;2024-02-23T13:08:24;99076.06;;;7.08;83.02